createdAt,value
2023-05-05T00:01:51.737Z,7.09
2023-05-05T00:04:22.808Z,7.11
2023-05-05T00:06:52.005Z,7.12
2023-05-05T00:09:20.505Z,7.13
2023-05-05T00:11:48.774Z,7.13
2023-05-05T00:14:17.187Z,7.11
2023-05-05T00:16:45.747Z,7.11
2023-05-05T00:19:15.663Z,7.08
2023-05-05T00:21:44.012Z,7.05
2023-05-05T00:24:12.613Z,7.02
2023-05-05T00:26:41.171Z,6.98
2023-05-05T00:29:09.629Z,6.95
2023-05-05T00:31:38.843Z,6.93
2023-05-05T00:34:07.215Z,6.92
2023-05-05T00:36:37.193Z,6.91
2023-05-05T00:39:05.732Z,6.90
2023-05-05T00:41:35.034Z,6.90
2023-05-05T00:44:04.803Z,6.88
2023-05-05T00:46:35.110Z,6.86
2023-05-05T00:49:03.883Z,6.82
2023-05-05T00:51:32.829Z,6.79
2023-05-05T00:54:03.280Z,6.77
2023-05-05T00:56:32.571Z,6.72
2023-05-05T00:59:01.091Z,6.70
2023-05-05T01:01:30.512Z,6.64
2023-05-05T01:03:59.431Z,6.62
2023-05-05T01:06:43.170Z,6.61
2023-05-05T01:09:25.392Z,6.56
2023-05-05T01:12:07.375Z,6.53
2023-05-05T01:14:41.232Z,6.51
2023-05-05T01:17:18.483Z,6.50
2023-05-05T01:20:11.041Z,6.48
2023-05-05T01:22:43.775Z,6.49
2023-05-05T01:25:37.701Z,6.50
2023-05-05T01:28:20.722Z,6.55
2023-05-05T01:31:07.426Z,6.56
2023-05-05T01:33:45.371Z,6.60
2023-05-05T01:36:31.713Z,6.57
2023-05-05T01:39:03.646Z,6.51
2023-05-05T01:41:44.511Z,6.53
2023-05-05T01:44:16.788Z,6.52
2023-05-05T01:46:49.643Z,6.54
2023-05-05T01:49:19.825Z,6.60
2023-05-05T01:51:49.285Z,6.67
2023-05-05T01:54:19.413Z,6.73
2023-05-05T01:56:50.512Z,6.74
2023-05-05T01:59:21.148Z,6.75
2023-05-05T02:01:52.288Z,6.80
2023-05-05T02:04:23.805Z,6.84
2023-05-05T02:06:54.655Z,6.87
2023-05-05T02:09:25.558Z,6.84
2023-05-05T02:11:58.569Z,6.83
2023-05-05T02:14:30.214Z,6.83
2023-05-05T02:16:59.674Z,6.84
2023-05-05T02:19:33.829Z,6.84
2023-05-05T02:22:02.523Z,6.81
2023-05-05T02:24:31.580Z,6.85
2023-05-05T02:27:04.011Z,6.85
2023-05-05T02:29:37.829Z,6.85
2023-05-05T02:32:11.006Z,6.86
2023-05-05T02:34:43.548Z,6.88
2023-05-05T02:37:24.725Z,6.90
2023-05-05T02:40:03.039Z,6.88
2023-05-05T02:42:37.212Z,6.85
2023-05-05T02:45:13.453Z,6.81
2023-05-05T02:47:44.879Z,6.79
2023-05-05T02:50:15.887Z,6.76
2023-05-05T02:52:57.471Z,6.73
2023-05-05T02:55:27.893Z,6.70
2023-05-05T02:58:04.612Z,6.74
2023-05-05T03:00:44.453Z,6.71
2023-05-05T03:03:20.024Z,6.75
2023-05-05T03:06:01.310Z,6.72
2023-05-05T03:08:36.027Z,6.71
2023-05-05T03:11:07.850Z,6.72
2023-05-05T03:13:44.081Z,6.72
2023-05-05T03:16:19.801Z,6.72
2023-05-05T03:18:51.200Z,6.72
2023-05-05T03:21:35.535Z,6.70
2023-05-05T03:24:14.681Z,6.70
2023-05-05T03:26:46.097Z,6.72
2023-05-05T03:29:15.931Z,6.77
2023-05-05T03:31:47.686Z,6.80
2023-05-05T03:34:17.088Z,6.82
2023-05-05T03:36:50.395Z,6.88
2023-05-05T03:39:19.305Z,6.93
2023-05-05T03:41:48.996Z,7.01
2023-05-05T03:44:19.217Z,7.04
2023-05-05T03:46:48.209Z,7.02
2023-05-05T03:49:21.370Z,7.02
2023-05-05T03:51:52.847Z,7.01
2023-05-05T03:54:21.381Z,7.04
2023-05-05T03:56:51.474Z,7.08
2023-05-05T03:59:20.352Z,7.10
2023-05-05T04:01:50.196Z,7.15
2023-05-05T04:04:19.313Z,7.23
2023-05-05T04:06:47.857Z,7.32
2023-05-05T04:09:18.299Z,7.39
2023-05-05T04:11:47.098Z,7.48
2023-05-05T04:14:15.777Z,7.55
2023-05-05T04:16:44.757Z,7.63
2023-05-05T04:19:14.500Z,7.73
2023-05-05T04:21:43.095Z,7.80
2023-05-05T04:24:11.977Z,7.87
2023-05-05T04:26:42.772Z,7.92
2023-05-05T04:29:11.949Z,7.95
2023-05-05T04:31:41.496Z,7.93
2023-05-05T04:34:10.537Z,7.94
2023-05-05T04:36:40.132Z,8.03
2023-05-05T04:39:09.598Z,8.12
2023-05-05T04:41:38.596Z,8.20
2023-05-05T04:44:09.300Z,8.25
2023-05-05T04:46:38.516Z,8.29
2023-05-05T04:49:07.205Z,8.37
2023-05-05T04:51:36.608Z,8.43
2023-05-05T04:54:05.854Z,8.46
2023-05-05T04:56:34.839Z,8.58
2023-05-05T04:59:04.220Z,8.74
2023-05-05T05:01:36.879Z,8.87
2023-05-05T05:04:07.202Z,8.98
2023-05-05T05:06:36.018Z,9.08
2023-05-05T05:09:05.675Z,9.23
2023-05-05T05:11:34.816Z,9.41
2023-05-05T05:14:03.712Z,9.53
2023-05-05T05:16:32.685Z,9.66
2023-05-05T05:19:03.243Z,9.84
2023-05-05T05:21:36.378Z,9.96
2023-05-05T05:24:06.003Z,10.04
2023-05-05T05:26:34.702Z,10.11
2023-05-05T05:29:04.476Z,10.16
2023-05-05T05:31:34.615Z,10.34
2023-05-05T05:34:05.926Z,10.54
2023-05-05T05:36:35.982Z,10.76
2023-05-05T05:39:05.650Z,10.97
2023-05-05T05:41:34.858Z,11.16
2023-05-05T05:44:03.711Z,11.31
2023-05-05T05:46:33.313Z,11.45
2023-05-05T05:49:02.481Z,11.59
2023-05-05T05:51:33.760Z,11.77
2023-05-05T05:54:03.176Z,11.93
2023-05-05T05:56:32.901Z,12.00
2023-05-05T05:59:02.359Z,12.12
2023-05-05T06:01:31.411Z,12.27
2023-05-05T06:04:01.047Z,12.41
2023-05-05T06:06:30.420Z,12.52
2023-05-05T06:09:00.699Z,12.66
2023-05-05T06:11:31.527Z,12.75
2023-05-05T06:14:00.828Z,12.86
2023-05-05T06:16:29.901Z,13.01
2023-05-05T06:19:00.961Z,13.16
2023-05-05T06:21:30.130Z,13.32
2023-05-05T06:23:58.830Z,13.46
2023-05-05T06:26:30.010Z,13.66
2023-05-05T06:28:59.567Z,13.88
2023-05-05T06:31:28.357Z,14.11
2023-05-05T06:33:57.304Z,14.38
2023-05-05T06:36:26.816Z,14.62
2023-05-05T06:38:59.487Z,14.85
2023-05-05T06:41:30.131Z,15.07
2023-05-05T06:44:01.946Z,15.23
2023-05-05T06:46:31.338Z,15.32
2023-05-05T06:49:00.889Z,15.33
2023-05-05T06:51:29.767Z,15.24
2023-05-05T06:53:58.967Z,15.26
2023-05-05T06:56:29.809Z,15.40
2023-05-05T06:58:59.151Z,15.59
2023-05-05T07:01:28.136Z,15.81
2023-05-05T07:03:57.014Z,15.99
2023-05-05T07:06:26.029Z,16.21
2023-05-05T07:08:55.809Z,16.39
2023-05-05T07:11:24.715Z,16.44
2023-05-05T07:13:55.506Z,16.37
2023-05-05T07:16:27.204Z,16.42
2023-05-05T07:18:56.308Z,16.44
2023-05-05T07:21:25.704Z,16.54
2023-05-05T07:23:54.941Z,16.60
2023-05-05T07:26:23.926Z,16.71
2023-05-05T07:28:53.456Z,16.80
2023-05-05T07:31:24.100Z,16.91
2023-05-05T07:33:53.387Z,16.95
2023-05-05T07:36:22.688Z,16.99
2023-05-05T07:38:51.671Z,17.10
2023-05-05T07:41:21.648Z,17.23
2023-05-05T07:43:52.033Z,17.27
2023-05-05T07:46:21.713Z,17.49
2023-05-05T07:48:52.015Z,17.75
2023-05-05T07:51:21.817Z,18.07
2023-05-05T07:53:50.915Z,18.25
2023-05-05T07:56:21.680Z,18.35
2023-05-05T07:58:51.018Z,18.43
2023-05-05T08:01:20.366Z,18.49
2023-05-05T08:03:51.816Z,18.63
2023-05-05T08:06:23.726Z,18.95
2023-05-05T08:08:54.373Z,19.27
2023-05-05T08:11:23.778Z,19.53
2023-05-05T08:13:52.762Z,19.70
2023-05-05T08:16:21.554Z,19.54
2023-05-05T08:18:50.549Z,19.40
2023-05-05T08:21:21.555Z,19.48
2023-05-05T08:23:50.454Z,19.67
2023-05-05T08:26:19.387Z,19.89
2023-05-05T08:28:48.958Z,19.97
2023-05-05T08:31:19.507Z,20.18
2023-05-05T08:33:48.450Z,20.48
2023-05-05T08:36:17.319Z,20.50
2023-05-05T08:38:48.025Z,20.54
2023-05-05T08:41:19.396Z,20.69
2023-05-05T08:43:59.358Z,20.86
2023-05-05T08:46:31.045Z,20.91
2023-05-05T08:49:00.491Z,21.09
2023-05-05T08:51:38.438Z,21.37
2023-05-05T08:54:14.748Z,21.57
2023-05-05T08:56:46.737Z,21.43
2023-05-05T08:59:17.389Z,21.70
2023-05-05T09:01:47.457Z,22.07
2023-05-05T09:04:19.522Z,22.07
2023-05-05T09:06:48.331Z,22.32
2023-05-05T09:09:19.067Z,22.70
2023-05-05T09:11:48.675Z,22.77
2023-05-05T09:14:17.589Z,23.05
2023-05-05T09:16:46.735Z,23.10
2023-05-05T09:19:18.544Z,22.98
2023-05-05T09:21:49.202Z,23.09
2023-05-05T09:24:19.698Z,23.28
2023-05-05T09:26:50.082Z,23.59
2023-05-05T09:29:23.432Z,23.73
2023-05-05T09:32:06.008Z,23.49
2023-05-05T09:34:36.396Z,23.12
2023-05-05T09:37:06.410Z,23.07
2023-05-05T09:39:37.199Z,23.53
2023-05-05T09:42:06.430Z,24.01
2023-05-05T09:44:36.383Z,24.19
2023-05-05T09:47:14.806Z,24.27
2023-05-05T09:50:00.671Z,24.29
2023-05-05T09:52:30.664Z,24.45
2023-05-05T09:55:01.287Z,24.37
2023-05-05T09:57:31.816Z,24.72
2023-05-05T10:00:02.233Z,24.72
2023-05-05T10:02:36.284Z,24.66
2023-05-05T10:05:10.359Z,24.60
2023-05-05T10:07:41.416Z,24.66
2023-05-05T10:10:13.883Z,24.58
2023-05-05T10:12:43.640Z,24.89
2023-05-05T10:15:14.213Z,25.02
2023-05-05T10:18:02.240Z,25.12
2023-05-05T10:20:37.751Z,25.18
2023-05-05T10:23:09.576Z,25.01
2023-05-05T10:25:48.294Z,25.23
2023-05-05T10:28:25.017Z,25.33
2023-05-05T10:30:58.381Z,25.59
2023-05-05T10:33:36.311Z,26.16
2023-05-05T10:36:07.932Z,26.41
2023-05-05T10:38:39.243Z,26.44
2023-05-05T10:41:11.534Z,26.73
2023-05-05T10:43:40.744Z,26.74
2023-05-05T10:46:10.225Z,26.81
2023-05-05T10:48:44.270Z,26.68
2023-05-05T10:51:35.956Z,26.20
2023-05-05T10:54:15.514Z,25.68
2023-05-05T10:56:45.935Z,25.52
2023-05-05T10:59:43.493Z,24.89
2023-05-05T11:02:23.892Z,24.60
2023-05-05T11:05:18.689Z,25.04
2023-05-05T11:07:49.479Z,25.45
2023-05-05T11:10:20.960Z,25.60
2023-05-05T11:13:23.375Z,24.90
2023-05-05T11:15:54.435Z,24.27
2023-05-05T11:18:36.078Z,23.74
2023-05-05T11:21:18.971Z,23.30
2023-05-05T11:23:52.174Z,23.13
2023-05-05T11:26:51.506Z,23.06
2023-05-05T11:29:22.260Z,22.91
2023-05-05T11:32:15.952Z,22.80
2023-05-05T11:34:52.348Z,22.99
2023-05-05T11:37:24.639Z,23.00
2023-05-05T11:40:18.201Z,22.87
2023-05-05T11:42:47.213Z,22.87
2023-05-05T11:45:25.492Z,22.68
2023-05-05T11:47:55.048Z,22.62
2023-05-05T11:50:27.368Z,22.56
2023-05-05T11:52:56.789Z,22.57
2023-05-05T11:55:25.882Z,22.58
2023-05-05T11:57:54.690Z,22.19
2023-05-05T12:00:35.164Z,21.93
2023-05-05T12:03:07.079Z,21.74
2023-05-05T12:05:37.079Z,21.62
2023-05-05T12:08:10.625Z,21.45
2023-05-05T12:10:39.743Z,21.32
2023-05-05T12:20:01.023Z,20.47
2023-05-05T12:22:29.822Z,20.29
2023-05-05T12:25:00.110Z,20.18
2023-05-05T12:27:29.536Z,20.00
2023-05-05T12:30:11.989Z,19.95
2023-05-05T12:32:41.859Z,19.88
2023-05-05T12:35:13.740Z,19.81
2023-05-05T12:37:44.422Z,19.85
2023-05-05T12:40:49.923Z,19.85
2023-05-05T12:43:30.184Z,19.88
2023-05-05T12:46:08.084Z,19.97
2023-05-05T12:48:41.762Z,20.07
2023-05-05T12:51:20.788Z,20.10
2023-05-05T12:53:51.466Z,20.12
2023-05-05T12:56:34.315Z,20.06
2023-05-05T12:59:04.901Z,20.00
2023-05-05T13:04:52.739Z,19.92
2023-05-05T13:07:24.698Z,19.89
2023-05-05T13:10:07.369Z,19.97
2023-05-05T13:12:37.197Z,19.99
2023-05-05T13:15:07.392Z,19.93
2023-05-05T13:17:36.938Z,19.86
2023-05-05T13:20:07.135Z,19.76
2023-05-05T13:22:37.790Z,19.62
2023-05-05T13:25:07.586Z,19.44
2023-05-05T13:27:38.079Z,19.31
2023-05-05T13:30:08.080Z,19.18
2023-05-05T13:32:37.929Z,19.11
2023-05-05T13:35:07.899Z,19.07
2023-05-05T13:37:39.275Z,18.98
2023-05-05T13:40:10.084Z,18.92
2023-05-05T13:42:39.034Z,18.91
2023-05-05T13:45:08.754Z,18.85
2023-05-05T13:47:37.565Z,18.80
2023-05-05T13:50:07.854Z,18.72
2023-05-05T13:52:38.676Z,18.67
2023-05-05T13:55:08.888Z,18.64
2023-05-05T13:57:38.251Z,18.65
2023-05-05T14:00:09.345Z,18.72
2023-05-05T14:02:38.779Z,18.84
2023-05-05T14:05:10.279Z,18.97
2023-05-05T14:07:41.421Z,19.09
2023-05-05T14:10:11.388Z,19.18
2023-05-05T14:12:40.774Z,19.44
2023-05-05T14:15:13.132Z,19.65
2023-05-05T14:17:42.204Z,19.81
2023-05-05T14:20:12.284Z,19.85
2023-05-05T14:22:42.790Z,19.97
2023-05-05T14:25:11.916Z,20.01
2023-05-05T14:27:41.220Z,19.84
2023-05-05T14:30:11.493Z,19.77
2023-05-05T14:32:40.654Z,19.83
2023-05-05T14:35:10.331Z,20.00
2023-05-05T14:37:39.892Z,20.18
2023-05-05T14:40:11.669Z,20.29
2023-05-05T14:42:40.542Z,20.48
2023-05-05T14:45:11.346Z,20.59
2023-05-05T14:47:40.566Z,20.66
2023-05-05T14:50:11.152Z,20.69
2023-05-05T14:52:40.621Z,20.66
2023-05-05T14:55:11.899Z,20.64
2023-05-05T14:57:43.170Z,20.62
2023-05-05T15:00:13.130Z,20.66
2023-05-05T15:02:42.715Z,20.60
2023-05-05T15:05:12.315Z,20.42
2023-05-05T15:07:41.547Z,20.40
2023-05-05T15:10:12.669Z,20.48
2023-05-05T15:12:42.529Z,20.44
2023-05-05T15:15:12.247Z,20.27
2023-05-05T15:17:42.061Z,20.13
2023-05-05T15:20:11.895Z,19.98
2023-05-05T15:22:41.287Z,19.78
2023-05-05T15:25:12.736Z,19.48
2023-05-05T15:27:42.326Z,19.20
2023-05-05T15:30:14.183Z,18.86
2023-05-05T15:32:43.234Z,18.65
2023-05-05T15:35:12.338Z,18.48
2023-05-05T15:37:42.748Z,18.42
2023-05-05T15:40:14.202Z,18.30
2023-05-05T15:42:43.534Z,18.17
2023-05-05T15:45:15.140Z,17.99
2023-05-05T15:47:44.340Z,17.75
2023-05-05T15:50:14.424Z,17.59
2023-05-05T15:52:43.336Z,17.56
2023-05-05T15:55:13.919Z,17.59
2023-05-05T15:57:42.803Z,17.69
2023-05-05T16:00:12.923Z,17.73
2023-05-05T16:02:41.710Z,17.77
2023-05-05T16:05:11.209Z,17.80
2023-05-05T16:07:40.026Z,17.73
2023-05-05T16:10:10.819Z,17.58
2023-05-05T16:12:41.263Z,17.43
2023-05-05T16:15:11.385Z,17.26
2023-05-05T16:17:40.424Z,17.09
2023-05-05T16:20:10.287Z,16.92
2023-05-05T16:22:38.975Z,16.75
2023-05-05T16:25:09.029Z,16.56
2023-05-05T16:27:37.758Z,16.44
2023-05-05T16:30:10.450Z,16.29
2023-05-05T16:32:39.232Z,16.18
2023-05-05T16:35:09.481Z,16.09
2023-05-05T16:37:40.888Z,16.02
2023-05-05T16:40:11.025Z,15.93
2023-05-05T16:42:40.552Z,15.90
2023-05-05T16:45:12.441Z,15.88
2023-05-05T16:47:41.284Z,15.80
2023-05-05T16:50:10.746Z,15.79
2023-05-05T16:52:39.656Z,15.71
2023-05-05T16:55:09.319Z,15.63
2023-05-05T16:57:38.147Z,15.57
2023-05-05T17:00:08.704Z,15.48
2023-05-05T17:02:39.334Z,15.41
2023-05-05T17:05:08.853Z,15.30
2023-05-05T17:07:37.756Z,15.26
2023-05-05T17:10:07.661Z,15.22
2023-05-05T17:12:36.754Z,15.17
2023-05-05T17:15:08.309Z,15.09
2023-05-05T17:17:39.712Z,15.02
2023-05-05T17:20:10.817Z,15.01
2023-05-05T17:22:40.047Z,14.94
2023-05-05T17:25:09.682Z,14.89
2023-05-05T17:27:39.483Z,14.84
2023-05-05T17:30:09.603Z,14.77
2023-05-05T17:32:39.883Z,14.70
2023-05-05T17:35:10.047Z,14.62
2023-05-05T17:37:40.217Z,14.54
2023-05-05T17:40:10.651Z,14.52
2023-05-05T17:42:39.757Z,14.45
2023-05-05T17:45:10.027Z,14.39
2023-05-05T17:47:42.528Z,14.32
2023-05-05T17:50:12.474Z,14.17
2023-05-05T17:52:44.239Z,14.09
2023-05-05T17:55:13.269Z,13.97
2023-05-05T17:57:41.955Z,13.91
2023-05-05T18:00:11.707Z,13.86
2023-05-05T18:02:44.663Z,13.83
2023-05-05T18:05:13.492Z,13.83
2023-05-05T18:07:42.283Z,13.78
2023-05-05T18:10:11.994Z,13.75
2023-05-05T18:12:41.542Z,13.72
2023-05-05T18:15:11.280Z,13.68
2023-05-05T18:17:44.842Z,13.63
2023-05-05T18:20:18.302Z,13.53
2023-05-05T18:22:48.984Z,13.44
2023-05-05T18:25:19.412Z,13.36
2023-05-05T18:27:54.009Z,13.34
2023-05-05T18:30:29.137Z,13.24
2023-05-05T18:33:02.507Z,13.20
2023-05-05T18:35:40.211Z,13.10
2023-05-05T18:38:15.194Z,13.07
2023-05-05T18:40:49.154Z,13.00
2023-05-05T18:43:24.576Z,12.91
2023-05-05T18:46:00.276Z,12.89
2023-05-05T18:48:34.397Z,12.84
2023-05-05T18:51:09.323Z,12.81
2023-05-05T18:53:43.040Z,12.78
2023-05-05T18:56:17.061Z,12.70
2023-05-05T18:58:51.792Z,12.61
2023-05-05T19:01:26.966Z,12.54
2023-05-05T19:04:00.883Z,12.48
2023-05-05T19:06:35.947Z,12.44
2023-05-05T19:09:07.567Z,12.40
2023-05-05T19:11:42.746Z,12.36
2023-05-05T19:14:27.736Z,12.30
2023-05-05T19:16:59.695Z,12.21
2023-05-05T19:19:30.055Z,12.14
2023-05-05T19:22:03.812Z,12.08
2023-05-05T19:24:35.681Z,11.98
2023-05-05T19:27:05.459Z,11.90
2023-05-05T19:29:36.381Z,11.79
2023-05-05T19:32:06.166Z,11.74
2023-05-05T19:34:34.957Z,11.65
2023-05-05T19:37:05.340Z,11.64
2023-05-05T19:39:34.444Z,11.63
2023-05-05T19:42:04.733Z,11.59
2023-05-05T19:44:34.322Z,11.57
2023-05-05T19:47:03.697Z,11.54
2023-05-05T19:49:32.972Z,11.51
2023-05-05T19:52:02.169Z,11.43
2023-05-05T19:54:32.579Z,11.39
2023-05-05T19:57:02.130Z,11.31
2023-05-05T19:59:33.179Z,11.26
2023-05-05T20:02:05.689Z,11.18
2023-05-05T20:04:34.907Z,11.18
2023-05-05T20:07:05.117Z,11.17
2023-05-05T20:09:36.141Z,11.14
2023-05-05T20:12:05.137Z,11.20
2023-05-05T20:14:33.959Z,11.18
2023-05-05T20:17:03.168Z,11.16
2023-05-05T20:19:33.049Z,11.16
2023-05-05T20:22:02.132Z,11.12
2023-05-05T20:24:31.279Z,11.06
2023-05-05T20:27:02.148Z,11.02
2023-05-05T20:29:32.825Z,11.00
2023-05-05T20:32:02.406Z,10.98
2023-05-05T20:34:31.579Z,10.93
2023-05-05T20:37:01.093Z,10.88
2023-05-05T20:39:30.031Z,10.83
2023-05-05T20:42:00.006Z,10.81
2023-05-05T20:44:29.282Z,10.77
2023-05-05T20:46:58.356Z,10.73
2023-05-05T20:49:27.450Z,10.69
2023-05-05T20:51:56.499Z,10.64
2023-05-05T20:54:26.125Z,10.59
2023-05-05T20:56:58.406Z,10.57
2023-05-05T20:59:29.302Z,10.51
2023-05-05T21:01:58.746Z,10.44
2023-05-05T21:04:28.057Z,10.42
2023-05-05T21:06:57.667Z,10.38
2023-05-05T21:09:26.940Z,10.39
2023-05-05T21:11:55.564Z,10.36
2023-05-05T21:14:27.406Z,10.31
2023-05-05T21:16:57.434Z,10.28
2023-05-05T21:19:26.497Z,10.18
2023-05-05T21:21:59.290Z,10.11
2023-05-05T21:24:28.313Z,10.02
2023-05-05T21:26:57.533Z,10.00
2023-05-05T21:29:27.487Z,9.92
2023-05-05T21:31:59.632Z,9.87
2023-05-05T21:34:30.451Z,9.88
2023-05-05T21:36:59.403Z,9.87
2023-05-05T21:39:28.403Z,9.87
2023-05-05T21:41:57.037Z,9.85
2023-05-05T21:44:26.954Z,9.85
2023-05-05T21:46:57.831Z,9.83
2023-05-05T21:49:26.593Z,9.80
2023-05-05T21:51:55.583Z,9.74
2023-05-05T21:54:26.828Z,9.68
2023-05-05T21:56:57.000Z,9.65
2023-05-05T21:59:26.014Z,9.61
2023-05-05T22:01:56.163Z,9.58
2023-05-05T22:04:26.544Z,9.55
2023-05-05T22:06:57.806Z,9.51
2023-05-05T22:09:26.889Z,9.52
2023-05-05T22:11:56.933Z,9.50
2023-05-05T22:14:26.481Z,9.48
2023-05-05T22:16:55.384Z,9.47
2023-05-05T22:19:26.002Z,9.43
2023-05-05T22:21:54.967Z,9.40
2023-05-05T22:24:24.539Z,9.38
2023-05-05T22:26:54.329Z,9.37
2023-05-05T22:29:24.905Z,9.36
2023-05-05T22:31:54.704Z,9.35
2023-05-05T22:34:24.069Z,9.31
2023-05-05T22:36:54.426Z,9.27
2023-05-05T22:39:24.033Z,9.21
2023-05-05T22:41:53.737Z,9.21
2023-05-05T22:44:25.294Z,9.16
2023-05-05T22:46:54.285Z,9.11
2023-05-05T22:49:25.100Z,9.08
2023-05-05T22:51:55.753Z,9.06
2023-05-05T22:54:24.985Z,9.03
2023-05-05T22:56:54.322Z,9.04
2023-05-05T22:59:23.223Z,8.99
2023-05-05T23:01:52.497Z,8.88
2023-05-05T23:04:21.497Z,8.84
2023-05-05T23:06:50.310Z,8.82
2023-05-05T23:09:21.630Z,8.77
2023-05-05T23:11:50.900Z,8.75
2023-05-05T23:14:19.855Z,8.73
2023-05-05T23:16:50.029Z,8.67
2023-05-05T23:19:19.433Z,8.65
2023-05-05T23:21:53.186Z,8.65
2023-05-05T23:24:24.043Z,8.63
2023-05-05T23:26:56.818Z,8.69
2023-05-05T23:29:26.047Z,8.73
2023-05-05T23:31:55.841Z,8.74
2023-05-05T23:34:25.252Z,8.77
2023-05-05T23:36:54.542Z,8.79
2023-05-05T23:39:25.033Z,8.84
2023-05-05T23:41:54.128Z,8.83
2023-05-05T23:44:22.827Z,8.84
2023-05-05T23:46:51.809Z,8.85
2023-05-05T23:49:20.933Z,8.88
2023-05-05T23:51:50.339Z,8.93
2023-05-05T23:54:20.895Z,8.97
2023-05-05T23:56:51.164Z,8.94
2023-05-05T23:59:20.272Z,8.95
